Time;durP1;ratioP1;P1;durP2;ratioP2;P2;SDS_P1;SDS_P2;PMS_P1;PMS_P2;Temp;Humidity;BMP_temperature;BMP_pressure;BME280_temperature;BME280_humidity;BME280_pressure;Samples;Min_cycle;Max_cycle;Signal;HPM_P1;HPM_P2
2023/03/01 00:01:24;;;;;;;6.60;3.95;;;;;;;5.73;100.00;101309.47;5092772;28;20484;-69
2023/03/01 00:03:50;;;;;;;6.85;4.18;;;;;;;5.69;100.00;101310.06;5093045;28;20035;-70
2023/03/01 00:06:16;;;;;;;5.47;3.50;;;;;;;5.46;100.00;101287.16;5093289;28;20417;-71
2023/03/01 00:08:41;;;;;;;6.85;4.05;;;;;;;5.44;100.00;101288.72;5092351;28;20040;-70
2023/03/01 00:11:12;;;;;;;4.93;3.55;;;;;;;5.69;100.00;101325.44;5092803;28;20031;-68
2023/03/01 00:13:39;;;;;;;5.22;3.30;;;;;;;5.62;100.00;101312.19;5092850;28;20102;-71
2023/03/01 00:16:06;;;;;;;4.95;3.40;;;;;;;5.67;100.00;101315.09;5092507;28;20490;-70
2023/03/01 00:18:32;;;;;;;6.38;3.53;;;;;;;5.60;100.00;101293.25;5092583;28;20105;-70
2023/03/01 00:20:57;;;;;;;5.57;3.90;;;;;;;5.67;100.00;101295.47;5092567;28;20498;-72
2023/03/01 00:23:23;;;;;;;6.45;3.97;;;;;;;5.59;100.00;101291.47;5092608;28;20040;-71
2023/03/01 00:25:50;;;;;;;5.60;3.70;;;;;;;5.30;100.00;101248.44;5092414;28;20024;-70
2023/03/01 00:28:16;;;;;;;5.55;3.80;;;;;;;5.53;100.00;101296.16;5092370;28;20085;-69
2023/03/01 00:30:42;;;;;;;6.00;3.88;;;;;;;5.28;100.00;101229.53;5092181;28;20036;-73
2023/03/01 00:33:08;;;;;;;5.30;3.60;;;;;;;5.57;100.00;101280.25;5092462;28;20051;-68
2023/03/01 00:35:34;;;;;;;5.65;3.33;;;;;;;5.47;100.00;101259.88;5092121;28;20115;-68
2023/03/01 00:38:00;;;;;;;5.82;3.92;;;;;;;5.59;100.00;101277.78;5073881;28;20047;-67
2023/03/01 00:40:29;;;;;;;6.82;4.65;;;;;;;5.51;100.00;101284.94;5091882;28;20032;-73
2023/03/01 00:42:55;;;;;;;5.72;4.32;;;;;;;5.39;100.00;101281.50;5092197;28;20111;-69
2023/03/01 00:45:21;;;;;;;5.65;4.35;;;;;;;5.42;100.00;101279.13;5091877;28;20103;-70
2023/03/01 00:47:47;;;;;;;7.13;3.88;;;;;;;5.43;100.00;101280.94;5092069;28;20107;-68
2023/03/01 00:50:12;;;;;;;7.95;4.38;;;;;;;5.49;100.00;101282.22;5092122;28;20036;-68
2023/03/01 00:52:38;;;;;;;6.18;3.97;;;;;;;5.47;100.00;101270.09;5091668;28;20113;-70
2023/03/01 00:55:05;;;;;;;8.85;5.00;;;;;;;5.49;100.00;101282.22;5092007;28;20022;-67
2023/03/01 00:57:30;;;;;;;6.25;4.03;;;;;;;5.40;100.00;101255.13;5055699;28;20547;-69
2023/03/01 00:59:56;;;;;;;5.30;3.80;;;;;;;5.48;100.00;101266.78;5091864;28;20028;-72
2023/03/01 01:02:21;;;;;;;5.63;3.80;;;;;;;5.39;100.00;101258.44;5091825;28;20028;-70
2023/03/01 01:04:47;;;;;;;8.52;4.43;;;;;;;5.05;100.00;101198.06;5085731;28;20534;-70
2023/03/01 01:07:14;;;;;;;16.05;5.75;;;;;;;5.44;100.00;101252.84;5077460;28;20032;-68
2023/03/01 01:09:40;;;;;;;28.73;10.02;;;;;;;5.29;100.00;101234.75;5071421;28;20029;-73
2023/03/01 01:12:06;;;;;;;32.08;8.98;;;;;;;5.45;100.00;101246.97;5071393;28;20384;-67
2023/03/01 01:14:31;;;;;;;25.17;7.30;;;;;;;5.44;100.00;101245.16;5071262;28;20032;-70
2023/03/01 01:16:57;;;;;;;18.52;6.75;;;;;;;5.43;100.00;101245.06;5071417;28;20391;-71
2023/03/01 01:19:24;;;;;;;18.30;6.60;;;;;;;5.39;100.00;101225.16;5051586;28;20044;-67
2023/03/01 01:21:50;;;;;;;9.20;4.68;;;;;;;5.47;100.00;101234.25;5071240;28;20115;-69
2023/03/01 01:24:16;;;;;;;29.15;10.02;;;;;;;5.55;100.00;101233.13;5071135;28;20566;-68
2023/03/01 01:26:42;;;;;;;47.55;12.77;;;;;;;5.56;100.00;101216.97;5071104;28;20085;-67
2023/03/01 01:29:09;;;;;;;60.83;14.77;;;;;;;5.60;100.00;101215.53;5071196;28;20487;-70
2023/03/01 01:31:36;;;;;;;62.30;14.93;;;;;;;5.72;100.00;101212.91;5070984;28;20390;-68
2023/03/01 01:34:04;;;;;;;55.67;14.15;;;;;;;5.56;100.00;101193.94;5070822;28;20113;-70
2023/03/01 01:36:29;;;;;;;68.05;15.57;;;;;;;5.52;100.00;101176.59;5070927;28;20028;-68
2023/03/01 01:38:55;;;;;;;50.65;13.77;;;;;;;5.81;100.00;101224.66;5070822;28;20486;-68
2023/03/01 01:41:22;;;;;;;44.28;11.35;;;;;;;5.72;100.00;101192.41;5071044;28;20039;-70
2023/03/01 01:44:09;;;;;;;46.20;12.77;;;;;;;5.59;100.00;101183.00;5070882;28;20035;-72
2023/03/01 01:46:37;;;;;;;36.90;10.38;;;;;;;5.88;100.00;101232.78;5070626;28;20067;-69
2023/03/01 01:49:25;;;;;;;32.80;11.00;;;;;;;5.89;100.00;101229.44;5070393;28;20031;-70
2023/03/01 01:51:59;;;;;;;43.63;11.32;;;;;;;5.62;100.00;101184.09;5070488;28;20403;-68
2023/03/01 01:54:36;;;;;;;71.97;17.83;;;;;;;5.60;100.00;101187.34;5070634;28;20081;-70
2023/03/01 01:57:07;;;;;;;40.60;13.98;;;;;;;5.74;100.00;101216.47;5069346;28;20410;-67
2023/03/01 01:59:33;;;;;;;44.90;13.88;;;;;;;5.70;100.00;101229.84;5070319;28;20478;-69
2023/03/01 02:02:03;;;;;;;30.60;13.38;;;;;;;5.72;100.00;101233.41;5070681;28;20025;-68
2023/03/01 02:04:29;;;;;;;;;;;;;;;5.66;100.00;101232.19;5071057;28;20025;-66
2023/03/01 02:07:02;;;;;;;30.15;10.18;;;;;;;5.55;100.00;101222.88;5070507;28;19973;-67
2023/03/01 02:09:30;;;;;;;56.67;16.83;;;;;;;5.65;100.00;101234.66;5070433;28;20032;-71
2023/03/01 02:11:55;;;;;;;53.28;17.00;;;;;;;5.70;100.00;101251.22;5070294;28;20091;-72
2023/03/01 02:14:21;;;;;;;24.58;10.07;;;;;;;5.66;100.00;101246.69;5069219;28;20479;-68
2023/03/01 02:16:47;;;;;;;26.90;11.02;;;;;;;5.70;100.00;101243.53;5070506;28;20028;-69
2023/03/01 02:19:27;;;;;;;55.45;19.15;;;;;;;5.63;100.00;101236.22;5070545;28;20529;-68
2023/03/01 02:22:27;;;;;;;71.35;20.30;;;;;;;5.66;100.00;101234.75;5070760;28;20043;-66
2023/03/01 02:25:17;;;;;;;59.80;19.95;;;;;;;5.71;100.00;101239.28;5052635;28;20127;-65
2023/03/01 02:27:49;;;;;;;50.53;17.00;;;;;;;5.80;100.00;101242.50;5070340;28;20364;-66
2023/03/01 02:30:15;;;;;;;59.78;21.65;;;;;;;5.85;100.00;101241.16;5070450;28;20507;-69
2023/03/01 02:32:41;;;;;;;43.92;17.92;;;;;;;5.86;100.00;101240.38;5074415;28;20040;-67
2023/03/01 02:35:13;;;;;;;39.95;16.20;;;;;;;5.86;100.00;101225.00;5074756;28;20059;-66
2023/03/01 02:37:41;;;;;;;60.08;19.00;;;;;;;5.94;100.00;101230.63;5082839;28;20028;-71
2023/03/01 02:40:15;;;;;;;49.70;16.88;;;;;;;5.98;100.00;101235.16;5094579;28;20036;-70
2023/03/01 02:42:50;;;;;;;50.25;15.20;;;;;;;5.95;100.00;101235.84;5094400;28;20051;-68
2023/03/01 02:45:16;;;;;;;52.30;16.55;;;;;;;5.93;100.00;101223.72;5094270;28;20032;-67
2023/03/01 02:47:41;;;;;;;40.88;11.43;;;;;;;5.98;100.00;101236.13;5094501;28;20490;-69
2023/03/01 02:50:30;;;;;;;33.95;10.68;;;;;;;5.96;100.00;101232.50;5094493;28;20110;-72
2023/03/01 02:53:07;;;;;;;48.00;13.52;;;;;;;5.67;100.00;101192.13;5091746;28;20486;-68
2023/03/01 02:55:32;;;;;;;51.25;16.00;;;;;;;5.65;100.00;101189.41;5094303;28;20176;-70
2023/03/01 02:58:01;;;;;;;33.50;9.52;;;;;;;5.61;100.00;101169.50;5093992;28;20089;-71
2023/03/01 03:00:32;;;;;;;55.47;16.88;;;;;;;5.83;100.00;101222.19;5094017;28;20062;-70
2023/03/01 03:02:58;;;;;;;24.13;9.23;;;;;;;5.84;100.00;101229.13;5094132;28;20032;-73
2023/03/01 03:05:28;;;;;;;28.05;9.57;;;;;;;5.92;100.00;101225.41;5093841;28;20028;-71
2023/03/01 03:07:55;;;;;;;30.80;10.55;;;;;;;5.79;100.00;101212.53;5093832;28;20055;-71
2023/03/01 03:10:32;;;;;;;29.60;7.80;;;;;;;5.73;100.00;101224.94;5093599;28;20497;-70
2023/03/01 03:13:07;;;;;;;20.38;8.05;;;;;;;5.68;100.00;101224.59;5093709;28;20028;-73
2023/03/01 03:15:35;;;;;;;19.67;6.15;;;;;;;5.60;100.00;101224.09;5093865;28;20368;-70
2023/03/01 03:18:03;;;;;;;13.07;5.88;;;;;;;5.61;100.00;101212.19;5093598;28;20081;-70
2023/03/01 03:20:29;;;;;;;8.05;4.88;;;;;;;5.67;100.00;101218.59;5093799;28;20455;-67
2023/03/01 03:22:58;;;;;;;21.58;8.68;;;;;;;5.61;100.00;101225.00;5093465;28;20107;-71
2023/03/01 03:25:24;;;;;;;40.22;11.13;;;;;;;5.61;100.00;101222.44;5093495;28;20035;-70
2023/03/01 03:27:56;;;;;;;12.07;6.25;;;;;;;5.63;100.00;101213.16;5093407;28;20111;-73
2023/03/01 03:30:24;;;;;;;12.68;4.78;;;;;;;5.58;100.00;101215.44;5093645;28;20024;-70
2023/03/01 03:32:52;;;;;;;10.48;4.82;;;;;;;5.51;100.00;101214.09;5093711;28;20028;-71
2023/03/01 03:35:19;;;;;;;9.35;4.30;;;;;;;5.45;100.00;101223.91;5093450;28;20032;-67
2023/03/01 03:38:02;;;;;;;12.77;5.15;;;;;;;5.50;100.00;101226.81;5093515;28;20032;-67
2023/03/01 03:40:37;;;;;;;14.00;5.13;;;;;;;5.45;100.00;101223.03;5093311;28;20028;-69
2023/03/01 03:43:05;;;;;;;10.50;5.35;;;;;;;5.52;100.00;101220.13;5092559;28;20024;-69
2023/03/01 03:45:33;;;;;;;6.80;3.85;;;;;;;5.56;100.00;101210.94;5093050;28;20034;-68
2023/03/01 03:47:59;;;;;;;14.55;6.18;;;;;;;5.28;100.00;101171.53;5093271;28;20032;-70
2023/03/01 03:50:24;;;;;;;6.30;4.00;;;;;;;5.37;100.00;101202.03;5093519;28;20021;-68
2023/03/01 03:52:50;;;;;;;5.53;3.60;;;;;;;5.32;100.00;101204.25;5092506;28;20065;-68
2023/03/01 03:55:19;;;;;;;6.40;3.90;;;;;;;5.08;100.00;101170.13;5092294;28;20028;-71
2023/03/01 03:57:53;;;;;;;5.63;3.80;;;;;;;5.23;100.00;101197.59;5091986;28;20063;-67
2023/03/01 04:00:21;;;;;;;4.80;3.00;;;;;;;5.17;100.00;101200.59;5092039;28;20479;-67
2023/03/01 04:02:47;;;;;;;5.20;2.95;;;;;;;5.18;100.00;101200.72;5092893;28;20020;-70
2023/03/01 04:05:15;;;;;;;4.75;3.22;;;;;;;5.25;100.00;101204.59;5091987;28;20028;-71
2023/03/01 04:07:42;;;;;;;5.65;3.28;;;;;;;5.27;100.00;101200.47;5087602;28;20032;-70
2023/03/01 04:10:13;;;;;;;4.68;3.20;;;;;;;5.13;100.00;101179.00;5079029;28;20085;-71
2023/03/01 04:12:39;;;;;;;5.65;3.03;;;;;;;5.12;100.00;101174.69;5092155;28;20073;-68
2023/03/01 04:15:13;;;;;;;7.40;3.70;;;;;;;5.15;100.00;101199.63;5091889;28;20032;-66
2023/03/01 04:17:43;;;;;;;7.18;3.88;;;;;;;5.26;100.00;101188.47;5091703;28;20024;-66
2023/03/01 04:20:17;;;;;;;6.90;4.38;;;;;;;4.99;100.00;101155.00;5073513;28;20024;-67
2023/03/01 04:22:46;;;;;;;5.60;4.05;;;;;;;5.15;100.00;101187.69;5091228;28;20028;-70
2023/03/01 04:25:14;;;;;;;6.22;3.92;;;;;;;5.18;100.00;101184.47;5091802;28;20035;-67
2023/03/01 04:27:40;;;;;;;6.05;3.78;;;;;;;5.23;100.00;101180.56;5091722;28;20060;-69
2023/03/01 04:30:07;;;;;;;7.47;3.80;;;;;;;4.90;100.00;101131.34;5091866;28;20020;-67
2023/03/01 04:32:32;;;;;;;6.47;4.43;;;;;;;5.14;100.00;101182.47;5091253;28;20028;-69
2023/03/01 04:34:57;;;;;;;9.15;4.40;;;;;;;5.14;100.00;101174.81;5072418;28;20054;-70
2023/03/01 04:37:23;;;;;;;7.88;3.95;;;;;;;5.25;100.00;101173.88;5073348;28;20528;-68
2023/03/01 04:39:49;;;;;;;6.78;4.80;;;;;;;5.25;100.00;101179.00;5090813;28;20024;-69
2023/03/01 04:42:15;;;;;;;6.57;4.15;;;;;;;5.28;100.00;101178.31;5096749;28;20031;-68
2023/03/01 04:44:40;;;;;;;7.20;4.57;;;;;;;5.25;100.00;101176.44;5100920;28;20063;-68
2023/03/01 04:47:06;;;;;;;6.85;4.32;;;;;;;5.23;100.00;101195.03;5084568;28;20024;-70
2023/03/01 04:49:32;;;;;;;13.98;6.43;;;;;;;5.13;100.00;101168.78;5096850;28;20036;-70
2023/03/01 04:52:03;;;;;;;11.80;5.28;;;;;;;5.18;100.00;101187.03;5101845;28;20027;-70
2023/03/01 04:54:30;;;;;;;15.35;5.38;;;;;;;5.17;100.00;101187.78;5112170;28;20046;-71
2023/03/01 04:56:55;;;;;;;7.25;4.15;;;;;;;5.15;100.00;101195.38;5098357;28;20040;-66
2023/03/01 04:59:24;;;;;;;6.60;4.32;;;;;;;5.22;100.00;101195.81;5091301;28;20077;-70
2023/03/01 05:01:57;;;;;;;6.50;4.03;;;;;;;5.15;100.00;101197.06;5091467;28;20020;-70
2023/03/01 05:04:24;;;;;;;6.28;4.43;;;;;;;5.17;100.00;101195.47;5082742;28;20440;-69
2023/03/01 05:06:50;;;;;;;6.40;4.13;;;;;;;5.18;100.00;101182.81;5070973;28;20028;-68
2023/03/01 05:09:15;;;;;;;7.90;4.50;;;;;;;5.12;100.00;101178.91;5085528;28;20501;-69
2023/03/01 05:11:41;;;;;;;8.70;4.60;;;;;;;5.18;100.00;101187.03;5073491;28;20143;-67
2023/03/01 05:14:07;;;;;;;9.10;4.40;;;;;;;4.89;100.00;101138.94;5091418;28;20036;-71
2023/03/01 05:16:34;;;;;;;10.07;5.80;;;;;;;4.83;100.00;101142.81;5090675;28;20466;-70
2023/03/01 05:18:59;;;;;;;10.50;5.50;;;;;;;5.11;100.00;101190.84;5073133;28;20028;-70
2023/03/01 05:21:25;;;;;;;11.98;6.25;;;;;;;5.19;100.00;101199.91;5091169;28;20475;-71
2023/03/01 05:23:50;;;;;;;8.00;5.00;;;;;;;5.11;100.00;101203.63;5091458;28;20040;-71
2023/03/01 05:26:18;;;;;;;7.97;5.18;;;;;;;5.14;100.00;101197.84;5091342;28;20032;-72
2023/03/01 05:28:44;;;;;;;7.38;5.15;;;;;;;5.02;100.00;101174.81;5091008;28;20037;-67
2023/03/01 05:31:10;;;;;;;9.25;5.28;;;;;;;5.16;100.00;101203.97;5091336;28;20024;-69
2023/03/01 05:33:40;;;;;;;8.65;5.90;;;;;;;4.87;100.00;101159.25;5091247;28;20107;-69
2023/03/01 05:36:06;;;;;;;;;;;;;;;5.11;100.00;101207.84;5091759;28;20028;-68
2023/03/01 05:38:31;;;;;;;7.13;5.20;;;;;;;4.78;100.00;101156.94;5092419;28;19916;-69
2023/03/01 05:40:57;;;;;;;7.70;5.07;;;;;;;5.08;100.00;101205.97;5089125;28;20088;-70
2023/03/01 05:43:22;;;;;;;13.32;5.80;;;;;;;5.10;100.00;101200.97;5082141;28;20406;-69
2023/03/01 05:45:48;;;;;;;8.23;5.88;;;;;;;4.85;100.00;101184.75;5070965;28;20059;-72
2023/03/01 05:48:14;;;;;;;11.63;6.22;;;;;;;5.15;100.00;101214.97;5070855;28;20460;-69
2023/03/01 05:50:42;;;;;;;10.13;5.80;;;;;;;5.12;100.00;101222.41;5071193;28;20107;-69
2023/03/01 05:53:19;;;;;;;8.52;6.13;;;;;;;5.01;100.00;101198.66;5070960;28;20064;-70
2023/03/01 05:55:47;;;;;;;7.95;5.28;;;;;;;5.15;100.00;101231.22;5070858;28;20498;-70
2023/03/01 05:58:18;;;;;;;9.90;5.63;;;;;;;5.22;100.00;101232.56;5084599;28;20174;-70
2023/03/01 06:00:44;;;;;;;9.20;6.07;;;;;;;5.15;100.00;101230.34;5089847;28;20043;-70
2023/03/01 06:03:12;;;;;;;8.57;5.75;;;;;;;4.88;100.00;101186.63;5087243;28;20028;-71
2023/03/01 06:05:39;;;;;;;9.23;6.28;;;;;;;5.12;100.00;101233.56;5082341;28;20029;-70
2023/03/01 06:08:04;;;;;;;9.57;5.75;;;;;;;5.17;100.00;101232.22;5050688;28;20699;-70
2023/03/01 06:10:30;;;;;;;10.98;7.28;;;;;;;5.05;100.00;101212.53;5069507;28;20074;-70
2023/03/01 06:12:56;;;;;;;9.40;5.70;;;;;;;5.15;100.00;101220.97;5069484;28;20507;-69
2023/03/01 06:15:22;;;;;;;13.35;6.78;;;;;;;4.21;100.00;101079.63;5085535;28;20081;-70
2023/03/01 06:17:48;;;;;;;10.02;6.28;;;;;;;5.11;100.00;101226.66;5089907;28;20055;-70
2023/03/01 06:20:16;;;;;;;9.35;6.40;;;;;;;5.18;100.00;101223.75;5090060;28;20075;-71
2023/03/01 06:22:43;;;;;;;11.02;6.43;;;;;;;5.15;100.00;101223.53;5076973;28;20055;-69
2023/03/01 06:25:09;;;;;;;9.27;6.47;;;;;;;5.15;100.00;101222.66;5068933;28;20043;-70
2023/03/01 06:27:35;;;;;;;9.15;6.28;;;;;;;5.02;100.00;101216.66;5069423;28;20490;-72
2023/03/01 06:30:01;;;;;;;12.02;5.90;;;;;;;5.19;100.00;101229.75;5085746;28;20028;-69
2023/03/01 06:32:26;;;;;;;10.82;7.80;;;;;;;5.19;100.00;101225.50;5089812;28;20085;-70
2023/03/01 06:34:52;;;;;;;11.98;7.05;;;;;;;5.21;100.00;101229.88;5071595;28;20037;-73
2023/03/01 06:37:17;;;;;;;9.57;6.80;;;;;;;5.22;100.00;101229.09;5084796;28;20064;-70
2023/03/01 06:39:43;;;;;;;16.20;8.75;;;;;;;5.03;100.00;101189.38;5089904;28;20441;-71
2023/03/01 06:42:12;;;;;;;12.52;7.30;;;;;;;5.21;100.00;101227.31;5089849;28;20391;-72
2023/03/01 06:44:39;;;;;;;13.93;8.48;;;;;;;5.28;100.00;101222.75;5082395;28;20043;-70
2023/03/01 06:47:04;;;;;;;10.13;6.53;;;;;;;5.38;100.00;101225.94;5069317;28;20050;-70
2023/03/01 06:49:30;;;;;;;9.65;6.50;;;;;;;5.36;100.00;101228.41;5068909;28;20768;-73
2023/03/01 06:51:57;;;;;;;9.98;6.93;;;;;;;5.29;100.00;101226.19;5071150;28;20038;-71
2023/03/01 06:54:23;;;;;;;9.55;6.80;;;;;;;5.27;100.00;101223.53;5089734;28;20077;-71
2023/03/01 06:56:49;;;;;;;11.35;6.78;;;;;;;5.27;100.00;101220.97;5071309;28;20115;-71
2023/03/01 06:59:16;;;;;;;14.18;7.90;;;;;;;5.37;100.00;101224.16;5089615;28;20526;-71
2023/03/01 07:01:42;;;;;;;9.35;6.32;;;;;;;5.44;100.00;101219.56;5071465;28;20061;-71
2023/03/01 07:04:07;;;;;;;8.20;5.97;;;;;;;5.47;100.00;101226.56;5090007;28;20028;-69
2023/03/01 07:06:33;;;;;;;11.55;7.00;;;;;;;5.42;100.00;101228.84;5071420;28;20095;-69
2023/03/01 07:08:58;;;;;;;15.60;6.10;;;;;;;5.28;100.00;101197.16;5089955;28;20036;-70
2023/03/01 07:11:24;;;;;;;13.20;6.35;;;;;;;5.44;100.00;101229.81;5094213;28;20020;-71
2023/03/01 07:13:49;;;;;;;19.38;9.40;;;;;;;5.45;100.00;101230.72;5096006;28;20028;-70
2023/03/01 07:16:15;;;;;;;25.42;11.77;;;;;;;5.57;100.00;101235.78;5089436;28;20110;-68
2023/03/01 07:18:41;;;;;;;45.40;14.95;;;;;;;5.27;100.00;101192.81;5085852;28;20040;-71
2023/03/01 07:21:09;;;;;;;12.75;7.25;;;;;;;5.56;100.00;101227.22;5093586;28;20020;-70
2023/03/01 07:23:34;;;;;;;49.58;17.33;;;;;;;5.47;100.00;101224.91;5075538;28;20035;-71
2023/03/01 07:26:00;;;;;;;24.30;12.20;;;;;;;5.57;100.00;101234.13;5079907;28;20028;-71
2023/03/01 07:28:27;;;;;;;13.70;5.72;;;;;;;5.48;100.00;101203.66;5092811;28;20040;-70
2023/03/01 07:30:52;;;;;;;35.67;12.73;;;;;;;5.59;100.00;101229.97;5080040;28;20028;-71
2023/03/01 07:33:18;;;;;;;36.78;13.30;;;;;;;5.41;100.00;101201.44;5093201;28;20036;-69
2023/03/01 07:35:43;;;;;;;14.35;6.82;;;;;;;5.64;100.00;101236.31;5075720;28;20039;-71
2023/03/01 07:38:09;;;;;;;30.00;10.10;;;;;;;5.69;100.00;101243.44;5075352;28;20066;-69
2023/03/01 07:40:35;;;;;;;8.15;4.57;;;;;;;5.69;100.00;101239.19;5041152;28;20110;-71
2023/03/01 07:43:01;;;;;;;19.60;7.15;;;;;;;5.74;100.00;101231.84;5093562;28;20021;-70
2023/03/01 07:45:27;;;;;;;42.65;15.70;;;;;;;5.77;100.00;101232.94;5093617;28;20107;-70
2023/03/01 07:47:53;;;;;;;17.25;7.68;;;;;;;5.86;100.00;101232.69;5093338;28;20498;-71
2023/03/01 07:50:19;;;;;;;13.07;7.03;;;;;;;5.75;100.00;101223.38;5093160;28;20024;-70
2023/03/01 07:52:49;;;;;;;16.95;7.82;;;;;;;5.87;100.00;101224.22;5093401;28;20409;-70
2023/03/01 07:55:16;;;;;;;33.97;13.52;;;;;;;5.81;100.00;101210.97;5093593;28;20104;-68
2023/03/01 07:57:41;;;;;;;31.85;11.80;;;;;;;5.76;100.00;101225.16;5092971;28;20064;-69
2023/03/01 08:00:10;;;;;;;26.75;11.00;;;;;;;5.75;100.00;101213.13;5093292;28;20071;-70
2023/03/01 08:02:35;;;;;;;26.60;8.10;;;;;;;5.79;100.00;101213.41;5057441;28;20040;-70
2023/03/01 08:05:01;;;;;;;42.60;13.60;;;;;;;5.81;100.00;101216.97;5093443;28;20538;-69
2023/03/01 08:07:26;;;;;;;24.08;9.40;;;;;;;5.76;100.00;101225.16;5075500;28;20020;-69
2023/03/01 08:09:52;;;;;;;44.30;12.52;;;;;;;5.75;100.00;101229.38;5093250;28;20107;-69
2023/03/01 08:12:17;;;;;;;37.42;12.43;;;;;;;5.75;100.00;101223.38;5092864;28;20181;-69
2023/03/01 08:14:43;;;;;;;20.95;7.72;;;;;;;5.78;100.00;101216.78;5092999;28;20020;-69
2023/03/01 08:17:08;;;;;;;33.40;12.55;;;;;;;5.62;100.00;101207.16;5092898;28;20398;-70
2023/03/01 08:19:34;;;;;;;37.38;13.45;;;;;;;5.73;100.00;101230.97;5092651;28;20034;-70
2023/03/01 08:22:02;;;;;;;47.05;16.85;;;;;;;5.79;100.00;101221.09;5092808;28;20035;-69
2023/03/01 08:24:28;;;;;;;40.13;12.75;;;;;;;5.77;100.00;101214.09;5092939;28;20073;-69
2023/03/01 08:26:54;;;;;;;48.08;14.73;;;;;;;5.83;100.00;101229.88;5092698;28;20028;-71
2023/03/01 08:29:20;;;;;;;57.88;15.55;;;;;;;5.86;100.00;101226.66;5085307;28;20089;-69
2023/03/01 08:31:46;;;;;;;54.20;18.52;;;;;;;5.83;100.00;101232.44;5075767;28;20031;-68
2023/03/01 08:34:13;;;;;;;44.63;13.23;;;;;;;5.87;100.00;101228.44;5072162;28;20032;-68
2023/03/01 08:36:42;;;;;;;40.22;15.13;;;;;;;5.82;100.00;101229.00;5086030;28;20032;-68
2023/03/01 08:39:10;;;;;;;37.47;14.10;;;;;;;5.87;100.00;101224.22;5092289;28;20479;-71
2023/03/01 08:41:38;;;;;;;43.38;14.45;;;;;;;5.88;100.00;101230.22;5091917;28;20020;-69
2023/03/01 08:44:04;;;;;;;39.97;12.55;;;;;;;5.90;100.00;101221.84;5092240;28;20090;-68
2023/03/01 08:46:36;;;;;;;37.65;12.13;;;;;;;5.69;100.00;101179.41;5039698;28;20072;-69
2023/03/01 08:49:11;;;;;;;45.85;15.15;;;;;;;5.82;100.00;101231.56;5073951;28;20035;-69
2023/03/01 08:51:38;;;;;;;46.30;15.85;;;;;;;5.81;100.00;101231.47;5092111;28;20390;-71
2023/03/01 08:54:10;;;;;;;35.25;12.63;;;;;;;5.77;100.00;101239.72;5092079;28;20032;-68
2023/03/01 08:56:36;;;;;;;40.63;12.43;;;;;;;5.78;100.00;101231.25;5091997;28;20032;-68
2023/03/01 08:59:02;;;;;;;40.10;12.48;;;;;;;5.79;100.00;101225.34;5091530;28;20051;-69
2023/03/01 09:01:28;;;;;;;39.83;13.02;;;;;;;5.85;100.00;101236.03;5091840;28;20027;-72
2023/03/01 09:03:53;;;;;;;31.95;11.13;;;;;;;5.84;100.00;101239.38;5091777;28;20046;-68
2023/03/01 09:06:19;;;;;;;21.23;9.93;;;;;;;5.82;100.00;101233.25;5091658;28;20421;-67
2023/03/01 09:08:46;;;;;;;35.90;14.52;;;;;;;5.64;100.00;101197.88;5091891;28;20032;-69
2023/03/01 09:11:18;;;;;;;41.75;14.55;;;;;;;5.88;100.00;101226.00;5091648;28;20604;-69
2023/03/01 09:13:46;;;;;;;48.83;15.35;;;;;;;5.86;100.00;101221.53;5091828;28;20102;-72
2023/03/01 09:16:13;;;;;;;48.72;16.70;;;;;;;5.80;100.00;101225.44;5091353;28;20550;-68
2023/03/01 09:18:39;;;;;;;56.58;18.58;;;;;;;5.82;100.00;101207.63;5073478;28;20059;-72
2023/03/01 09:21:14;;;;;;;41.10;13.75;;;;;;;5.96;100.00;101222.25;5091554;28;20483;-67
2023/03/01 09:23:42;;;;;;;47.58;15.63;;;;;;;6.02;100.00;101203.88;5091252;28;20024;-70
2023/03/01 09:26:09;;;;;;;44.97;13.48;;;;;;;6.02;100.00;101213.22;5091222;28;20391;-71
2023/03/01 09:28:39;;;;;;;46.20;14.85;;;;;;;5.98;100.00;101217.22;5091430;28;20032;-69
2023/03/01 09:31:05;;;;;;;42.83;15.05;;;;;;;5.96;100.00;101217.13;5091498;28;20036;-68
2023/03/01 09:33:32;;;;;;;35.25;12.73;;;;;;;5.97;100.00;101213.78;5091135;28;20050;-70
2023/03/01 09:36:02;;;;;;;35.45;13.45;;;;;;;5.67;100.00;101169.94;5091523;28;20049;-69
2023/03/01 09:38:28;;;;;;;;;;;;;;;5.96;100.00;101212.00;5091650;28;20032;-69
2023/03/01 09:40:54;;;;;;;37.80;12.82;;;;;;;5.93;100.00;101214.38;5090631;28;19918;-69
2023/03/01 09:43:37;;;;;;;24.13;10.35;;;;;;;5.99;100.00;101212.25;5091278;28;20096;-69
2023/03/01 09:46:10;;;;;;;26.45;10.13;;;;;;;6.05;100.00;101208.34;5091011;28;20461;-68
2023/03/01 09:49:03;;;;;;;29.65;10.55;;;;;;;6.02;100.00;101218.34;5091129;28;20062;-69
2023/03/01 09:51:35;;;;;;;21.33;9.30;;;;;;;5.99;100.00;101219.94;5048295;28;20045;-69
2023/03/01 09:54:03;;;;;;;51.78;14.98;;;;;;;5.97;100.00;101225.72;5048462;28;20029;-69
2023/03/01 09:56:53;;;;;;;22.88;10.35;;;;;;;5.96;100.00;101229.94;5048020;28;20049;-68
2023/03/01 09:59:40;;;;;;;50.85;15.15;;;;;;;5.87;100.00;101197.69;5048211;28;20523;-69
2023/03/01 10:02:31;;;;;;;46.88;15.13;;;;;;;6.09;100.00;101226.59;5048178;28;20068;-69
2023/03/01 10:05:24;;;;;;;17.63;8.50;;;;;;;6.09;100.00;101220.56;5048046;28;20033;-70
2023/03/01 10:08:15;;;;;;;14.77;7.60;;;;;;;6.09;100.00;101224.03;5048166;28;20493;-68
2023/03/01 10:11:00;;;;;;;16.38;7.35;;;;;;;6.20;100.00;101221.28;5048273;28;20110;-68
2023/03/01 10:13:52;;;;;;;27.33;10.23;;;;;;;6.27;100.00;101215.78;4988796;28;20039;-68
2023/03/01 10:16:38;;;;;;;44.95;13.98;;;;;;;6.07;100.00;101182.00;4988775;28;20073;-69
2023/03/01 10:19:06;;;;;;;14.23;7.60;;;;;;;6.25;100.00;101207.09;4989056;28;20034;-69
2023/03/01 10:21:40;;;;;;;11.88;6.28;;;;;;;6.28;100.00;101208.19;4988670;28;20042;-71
2023/03/01 10:24:14;;;;;;;14.77;6.45;;;;;;;6.31;100.00;101207.50;4988916;28;20042;-72
2023/03/01 10:26:43;;;;;;;10.50;6.47;;;;;;;6.34;100.00;101196.56;4988399;28;20069;-73
2023/03/01 10:29:10;;;;;;;15.25;7.05;;;;;;;6.39;100.00;101198.66;5022903;28;20041;-68
2023/03/01 10:31:44;;;;;;;10.95;6.05;;;;;;;6.15;100.00;101155.19;5028047;28;20160;-67
2023/03/01 10:34:36;;;;;;;8.77;5.60;;;;;;;6.39;100.00;101169.53;5028026;28;20033;-68
2023/03/01 10:37:14;;;;;;;9.68;6.07;;;;;;;6.41;100.00;101167.97;4969261;28;20039;-68
2023/03/01 10:40:09;;;;;;;21.27;7.68;;;;;;;6.42;100.00;101170.63;4969415;28;20043;-68
2023/03/01 10:42:46;;;;;;;21.75;7.82;;;;;;;6.52;100.00;101176.31;4911681;29;20040;-72
2023/03/01 10:45:17;;;;;;;34.72;10.73;;;;;;;6.50;100.00;101167.66;4958301;28;20425;-67
2023/03/01 10:47:42;;;;;;;44.90;13.55;;;;;;;6.45;100.00;101160.53;4969075;28;20066;-68
2023/03/01 10:50:20;;;;;;;15.70;7.43;;;;;;;6.55;100.00;101166.28;4969303;28;20128;-68
2023/03/01 10:53:01;;;;;;;34.30;9.98;;;;;;;6.28;100.00;101113.31;4971739;28;20046;-70
2023/03/01 10:55:29;;;;;;;23.13;9.57;;;;;;;6.54;100.00;101157.72;4972933;28;20418;-69
2023/03/01 10:58:20;;;;;;;19.63;9.07;;;;;;;6.49;100.00;101161.63;4972795;28;20042;-68
2023/03/01 11:00:53;;;;;;;22.52;9.85;;;;;;;6.39;100.00;101149.00;4953759;28;20052;-70
2023/03/01 11:03:36;;;;;;;12.57;7.45;;;;;;;6.46;100.00;101157.19;4953757;28;20043;-68
2023/03/01 11:06:20;;;;;;;24.00;9.93;;;;;;;6.41;100.00;101153.44;4953464;29;20058;-68
2023/03/01 11:08:48;;;;;;;13.32;6.93;;;;;;;6.17;100.00;101108.25;4953456;28;20035;-71
2023/03/01 11:11:46;;;;;;;22.92;10.40;;;;;;;6.44;100.00;101150.19;4953214;29;20043;-68
2023/03/01 11:14:21;;;;;;;39.03;13.63;;;;;;;6.43;100.00;101154.44;4952513;28;20126;-71
2023/03/01 11:17:29;;;;;;;18.95;8.13;;;;;;;6.48;100.00;101153.06;4953284;28;20094;-71
2023/03/01 11:20:19;;;;;;;25.77;10.38;;;;;;;6.42;100.00;101152.66;4979620;28;20144;-69
2023/03/01 11:22:51;;;;;;;27.33;9.65;;;;;;;6.46;100.00;101152.06;4991998;28;20038;-69
2023/03/01 11:25:19;;;;;;;27.20;11.48;;;;;;;6.53;100.00;101155.03;4991850;28;20076;-69
2023/03/01 11:27:45;;;;;;;31.92;10.65;;;;;;;6.43;100.00;101140.72;4991887;28;20038;-68